createdAt,value
2024-05-09T00:01:11.665Z,70.40
2024-05-09T00:04:13.482Z,70.70
2024-05-09T00:07:15.279Z,71.20
2024-05-09T00:10:25.342Z,71.60
2024-05-09T00:13:34.839Z,71.50
2024-05-09T00:16:36.574Z,71.30
2024-05-09T00:19:38.413Z,70.90
2024-05-09T00:22:40.308Z,70.90
2024-05-09T00:25:45.499Z,70.80
2024-05-09T00:28:47.493Z,70.90
2024-05-09T00:31:49.441Z,73.00
2024-05-09T00:34:51.278Z,73.60
2024-05-09T00:37:53.142Z,73.50
2024-05-09T00:40:54.974Z,71.40
2024-05-09T00:43:56.840Z,69.90
2024-05-09T00:46:59.195Z,70.20
2024-05-09T00:50:04.183Z,70.70
2024-05-09T00:53:07.480Z,70.90
2024-05-09T00:56:12.712Z,71.20
2024-05-09T00:59:15.291Z,71.40
2024-05-09T01:02:17.503Z,71.60
2024-05-09T01:05:19.321Z,71.80
2024-05-09T01:08:21.454Z,71.50
2024-05-09T01:11:23.422Z,72.10
2024-05-09T01:14:25.431Z,72.60
2024-05-09T01:17:27.735Z,73.00
2024-05-09T01:20:39.584Z,73.10
2024-05-09T01:23:44.583Z,73.10
2024-05-09T01:26:46.640Z,73.40
2024-05-09T01:29:48.391Z,73.70
2024-05-09T01:32:50.295Z,73.90
2024-05-09T01:35:52.176Z,74.60
2024-05-09T01:38:53.944Z,75.00
2024-05-09T01:41:55.691Z,75.40
2024-05-09T01:44:57.473Z,75.60
2024-05-09T01:47:59.602Z,75.40
2024-05-09T01:51:01.759Z,74.70
2024-05-09T01:54:03.572Z,74.90
2024-05-09T01:57:05.522Z,74.60
2024-05-09T02:00:08.146Z,74.60
2024-05-09T02:03:15.932Z,74.10
2024-05-09T02:06:19.374Z,74.40
2024-05-09T02:09:21.148Z,74.70
2024-05-09T02:12:23.117Z,74.40
2024-05-09T02:15:24.895Z,74.30
2024-05-09T02:18:26.755Z,73.70
2024-05-09T02:21:28.553Z,73.20
2024-05-09T02:24:30.314Z,73.50
2024-05-09T02:27:32.100Z,73.30
2024-05-09T02:30:39.670Z,72.70
2024-05-09T02:33:44.190Z,73.10
2024-05-09T02:36:46.113Z,73.20
2024-05-09T02:39:47.882Z,73.50
2024-05-09T02:42:49.626Z,73.60
2024-05-09T02:45:51.394Z,73.90
2024-05-09T02:48:53.195Z,73.90
2024-05-09T02:51:55.078Z,73.60
2024-05-09T02:54:56.830Z,74.10
2024-05-09T02:57:58.641Z,75.30
2024-05-09T03:01:01.391Z,75.30
2024-05-09T03:04:03.348Z,74.90
2024-05-09T03:07:05.285Z,75.30
2024-05-09T03:10:14.874Z,75.10
2024-05-09T03:13:23.901Z,75.00
2024-05-09T03:16:25.633Z,74.70
2024-05-09T03:19:27.461Z,75.20
2024-05-09T03:22:29.332Z,75.20
2024-05-09T03:25:31.205Z,74.80
2024-05-09T03:28:33.055Z,74.50
2024-05-09T03:31:34.805Z,74.70
2024-05-09T03:34:39.152Z,74.70
2024-05-09T03:37:40.881Z,75.00
2024-05-09T03:40:47.026Z,75.50
2024-05-09T03:43:48.963Z,75.80
2024-05-09T03:46:50.957Z,76.10
2024-05-09T03:49:52.793Z,75.40
2024-05-09T03:52:54.596Z,75.80
2024-05-09T03:55:56.462Z,76.30
2024-05-09T03:58:58.272Z,76.60
2024-05-09T04:02:00.106Z,77.00
2024-05-09T04:05:01.928Z,77.40
2024-05-09T04:08:04.766Z,78.10
2024-05-09T04:11:06.961Z,78.60
2024-05-09T04:14:08.895Z,78.80
2024-05-09T04:17:10.822Z,79.30
2024-05-09T04:20:21.371Z,79.70
2024-05-09T04:23:31.308Z,80.10
2024-05-09T04:26:33.183Z,79.80
2024-05-09T04:29:35.051Z,78.80
2024-05-09T04:32:37.037Z,77.70
2024-05-09T04:35:39.163Z,76.50
2024-05-09T04:38:41.158Z,75.70
2024-05-09T04:41:42.995Z,73.50
2024-05-09T04:44:44.769Z,72.30
2024-05-09T04:47:46.944Z,71.90
2024-05-09T04:50:48.875Z,71.50
2024-05-09T04:53:50.745Z,71.40
2024-05-09T04:56:52.550Z,71.10
2024-05-09T04:59:54.296Z,70.60
2024-05-09T05:02:56.177Z,70.70
2024-05-09T05:05:58.213Z,69.60
2024-05-09T05:09:00.051Z,69.20
2024-05-09T05:12:01.984Z,69.20
2024-05-09T05:15:03.935Z,68.80
2024-05-09T05:18:06.057Z,67.60
2024-05-09T05:21:07.933Z,67.80
2024-05-09T05:24:09.708Z,66.60
2024-05-09T05:27:11.435Z,65.30
2024-05-09T05:30:21.097Z,66.00
2024-05-09T05:33:27.259Z,64.40
2024-05-09T05:36:29.107Z,64.60
2024-05-09T05:39:30.910Z,64.60
2024-05-09T05:42:33.743Z,64.30
2024-05-09T05:45:35.753Z,63.50
2024-05-09T05:48:37.565Z,64.70
2024-05-09T05:51:39.380Z,64.30
2024-05-09T05:54:41.183Z,63.50
2024-05-09T05:57:43.497Z,62.80
2024-05-09T06:00:45.343Z,62.10
2024-05-09T06:03:47.370Z,62.80
2024-05-09T06:06:49.230Z,62.20
2024-05-09T06:09:51.023Z,62.40
2024-05-09T06:12:52.783Z,61.40
2024-05-09T06:15:54.591Z,61.10
2024-05-09T06:18:56.486Z,60.60
2024-05-09T06:21:58.677Z,60.40
2024-05-09T06:25:00.842Z,60.40
2024-05-09T06:28:02.712Z,59.90
2024-05-09T06:31:04.746Z,60.60
2024-05-09T06:34:06.619Z,59.20
2024-05-09T06:37:08.445Z,58.50
2024-05-09T06:40:12.553Z,58.50
2024-05-09T06:43:18.952Z,58.30
2024-05-09T06:46:21.659Z,58.70
2024-05-09T06:49:23.540Z,59.00
2024-05-09T06:52:25.330Z,59.20
2024-05-09T06:55:27.085Z,59.20
2024-05-09T06:58:28.840Z,59.40
2024-05-09T07:01:31.418Z,57.50
2024-05-09T07:04:33.412Z,57.30
2024-05-09T07:07:35.486Z,55.00
2024-05-09T07:10:37.665Z,55.70
2024-05-09T07:13:39.675Z,55.10
2024-05-09T07:16:41.449Z,52.70
2024-05-09T07:19:43.285Z,53.20
2024-05-09T07:22:45.343Z,52.80
2024-05-09T07:25:47.383Z,53.50
2024-05-09T07:28:49.356Z,52.80
2024-05-09T07:31:51.443Z,51.30
2024-05-09T07:34:53.318Z,51.10
2024-05-09T07:37:55.131Z,50.30
2024-05-09T07:40:56.983Z,51.30
2024-05-09T07:43:58.799Z,49.70
2024-05-09T07:52:22.673Z,47.50
2024-05-09T07:53:39.971Z,48.90
2024-05-09T07:56:46.381Z,46.90
2024-05-09T07:59:48.303Z,46.20
2024-05-09T08:02:50.068Z,46.40
2024-05-09T08:05:52.065Z,45.80
2024-05-09T08:08:54.099Z,47.20
2024-05-09T08:11:55.968Z,48.70
2024-05-09T08:14:57.811Z,48.10
2024-05-09T08:17:59.778Z,47.60
2024-05-09T08:21:01.665Z,48.70
2024-05-09T08:24:03.603Z,48.30
2024-05-09T08:27:05.629Z,47.80
2024-05-09T08:30:10.244Z,45.00
2024-05-09T08:33:14.525Z,45.10
2024-05-09T08:36:16.392Z,44.90
2024-05-09T08:39:18.472Z,45.50
2024-05-09T08:42:22.963Z,45.10
2024-05-09T08:45:25.501Z,45.90
2024-05-09T08:48:27.664Z,45.40
2024-05-09T08:51:29.829Z,46.20
2024-05-09T08:54:31.806Z,42.50
2024-05-09T08:57:36.096Z,43.00
2024-05-09T09:00:39.268Z,45.00
2024-05-09T09:03:42.250Z,44.70
2024-05-09T09:06:44.544Z,42.60
2024-05-09T09:09:47.915Z,40.60
2024-05-09T09:12:56.379Z,41.10
2024-05-09T09:15:58.662Z,39.90
2024-05-09T09:19:01.045Z,37.80
2024-05-09T09:22:04.038Z,39.20
2024-05-09T09:25:06.046Z,38.20
2024-05-09T09:28:08.609Z,35.40
2024-05-09T09:31:10.816Z,37.90
2024-05-09T09:34:12.872Z,34.00
2024-05-09T09:37:20.792Z,34.80
2024-05-09T09:40:32.102Z,33.40
2024-05-09T09:43:36.646Z,34.70
2024-05-09T09:46:39.612Z,35.70
2024-05-09T09:49:43.019Z,35.90
2024-05-09T09:52:45.635Z,34.70
2024-05-09T09:55:48.468Z,34.20
2024-05-09T09:58:52.892Z,33.10
2024-05-09T10:01:55.006Z,32.60
2024-05-09T10:04:57.065Z,34.20
2024-05-09T10:08:02.923Z,34.10
2024-05-09T10:11:04.974Z,34.90
2024-05-09T10:14:07.194Z,32.20
2024-05-09T10:17:09.209Z,31.90
2024-05-09T10:20:18.461Z,34.00
2024-05-09T10:23:31.954Z,32.40
2024-05-09T10:26:38.128Z,33.40
2024-05-09T10:29:50.756Z,33.80
2024-05-09T10:32:52.627Z,33.30
2024-05-09T10:35:54.520Z,33.20
2024-05-09T10:38:56.336Z,34.00
2024-05-09T10:41:58.099Z,33.80
2024-05-09T10:45:00.114Z,34.00
2024-05-09T10:48:02.374Z,30.10
2024-05-09T10:51:04.974Z,28.10
2024-05-09T10:54:06.730Z,29.20
2024-05-09T10:57:08.515Z,30.30
2024-05-09T11:00:18.983Z,32.00
2024-05-09T11:03:25.871Z,30.80
2024-05-09T11:06:28.638Z,29.80
2024-05-09T11:09:32.348Z,27.00
2024-05-09T11:12:34.963Z,25.50
2024-05-09T11:15:45.606Z,27.60
2024-05-09T11:18:55.016Z,27.50
2024-05-09T11:21:57.831Z,27.80
2024-05-09T11:24:59.820Z,27.30
2024-05-09T11:28:02.462Z,27.70
2024-05-09T11:31:09.346Z,29.60
2024-05-09T11:34:11.976Z,29.90
2024-05-09T11:37:14.074Z,28.90
2024-05-09T11:40:21.532Z,29.30
2024-05-09T11:43:27.472Z,29.70
2024-05-09T11:46:29.417Z,29.70
2024-05-09T11:49:31.336Z,32.00
2024-05-09T11:52:33.164Z,29.40
2024-05-09T11:55:34.980Z,30.40
2024-05-09T11:58:36.835Z,29.70
2024-05-09T12:01:38.776Z,31.60
2024-05-09T12:04:40.722Z,29.80
2024-05-09T12:07:42.569Z,30.20
2024-05-09T12:10:44.538Z,30.40
2024-05-09T12:13:46.405Z,30.90
2024-05-09T12:16:48.283Z,31.90
2024-05-09T12:19:50.109Z,32.10
2024-05-09T12:22:51.899Z,31.40
2024-05-09T12:25:53.962Z,31.30
2024-05-09T12:28:55.777Z,28.10
2024-05-09T12:31:57.774Z,26.00
2024-05-09T12:34:59.536Z,24.70
2024-05-09T12:38:01.311Z,25.30
2024-05-09T12:41:03.152Z,19.30
2024-05-09T12:44:05.043Z,25.50
2024-05-09T12:47:06.874Z,26.80
2024-05-09T12:50:18.597Z,25.90
2024-05-09T12:53:26.371Z,28.10
2024-05-09T12:56:28.258Z,28.00
2024-05-09T12:59:30.119Z,25.70
2024-05-09T13:02:31.979Z,24.30
2024-05-09T13:05:34.028Z,25.90
2024-05-09T13:08:35.994Z,25.60
2024-05-09T13:11:37.967Z,27.70
2024-05-09T13:14:39.774Z,28.10
2024-05-09T13:17:41.676Z,31.30
2024-05-09T13:20:44.116Z,30.50
2024-05-09T13:23:45.858Z,30.80
2024-05-09T13:26:47.666Z,28.50
2024-05-09T13:29:49.421Z,25.90
2024-05-09T13:32:51.333Z,24.60
2024-05-09T13:35:53.259Z,17.70
2024-05-09T13:38:55.121Z,15.30
2024-05-09T13:41:56.889Z,16.30
2024-05-09T13:44:58.881Z,16.50
2024-05-09T13:48:01.284Z,15.20
2024-05-09T13:51:03.245Z,15.70
2024-05-09T13:54:04.995Z,15.70
2024-05-09T13:57:06.851Z,16.50
2024-05-09T14:00:22.267Z,17.80
2024-05-09T14:03:30.712Z,25.70
2024-05-09T14:06:32.716Z,24.70
2024-05-09T14:09:34.542Z,25.50
2024-05-09T14:12:36.355Z,26.60
2024-05-09T14:15:38.260Z,28.30
2024-05-09T14:18:40.158Z,30.30
2024-05-09T14:21:42.029Z,29.50
2024-05-09T14:24:43.891Z,29.80
2024-05-09T14:27:45.754Z,29.30
2024-05-09T14:30:47.632Z,28.50
2024-05-09T14:33:49.645Z,30.30
2024-05-09T14:36:51.549Z,30.50
2024-05-09T14:39:53.547Z,30.80
2024-05-09T14:42:55.439Z,29.40
2024-05-09T14:45:57.265Z,29.60
2024-05-09T14:48:59.233Z,29.50
2024-05-09T14:52:01.162Z,30.70
2024-05-09T14:55:02.998Z,30.80
2024-05-09T14:58:08.801Z,28.20
2024-05-09T15:01:10.852Z,31.10
2024-05-09T15:04:12.751Z,31.40
2024-05-09T15:07:14.782Z,30.80
2024-05-09T15:10:23.947Z,30.50
2024-05-09T15:13:33.421Z,31.20
2024-05-09T15:16:35.362Z,30.90
2024-05-09T15:19:37.466Z,30.80
2024-05-09T15:22:39.366Z,31.80
2024-05-09T15:25:41.250Z,32.70
2024-05-09T15:28:43.055Z,31.20
2024-05-09T15:31:44.846Z,28.40
2024-05-09T15:34:46.691Z,30.10
2024-05-09T15:37:48.588Z,31.50
2024-05-09T15:40:50.564Z,30.90
2024-05-09T15:43:52.358Z,31.10
2024-05-09T15:46:54.125Z,32.10
2024-05-09T15:49:56.031Z,31.60
2024-05-09T15:52:57.827Z,32.40
2024-05-09T15:55:59.648Z,32.40
2024-05-09T15:59:01.579Z,30.20
2024-05-09T16:02:03.662Z,29.30
2024-05-09T16:05:06.479Z,31.20
2024-05-09T16:08:09.079Z,30.00
2024-05-09T16:11:11.228Z,31.40
2024-05-09T16:14:13.054Z,30.10
2024-05-09T16:17:15.069Z,31.10
2024-05-09T16:20:26.407Z,31.60
2024-05-09T16:23:36.741Z,30.50
2024-05-09T16:26:38.738Z,29.00
2024-05-09T16:29:40.502Z,28.90
2024-05-09T16:32:42.408Z,30.70
2024-05-09T16:35:44.612Z,30.30
2024-05-09T16:38:46.459Z,30.90
2024-05-09T16:41:48.250Z,32.30
2024-05-09T16:44:50.021Z,32.90
2024-05-09T16:47:51.903Z,32.40
2024-05-09T16:50:53.700Z,32.60
2024-05-09T16:53:55.440Z,33.50
2024-05-09T16:56:57.296Z,33.60
2024-05-09T16:59:59.141Z,32.60
2024-05-09T17:03:01.035Z,33.80
2024-05-09T17:06:02.970Z,35.60
2024-05-09T17:09:08.277Z,34.50
2024-05-09T17:12:13.414Z,34.50
2024-05-09T17:15:15.172Z,35.90
2024-05-09T17:18:17.152Z,35.10
2024-05-09T17:21:19.082Z,36.20
2024-05-09T17:24:20.890Z,36.00
2024-05-09T17:27:22.671Z,36.90
2024-05-09T17:30:32.029Z,36.50
2024-05-09T17:33:37.823Z,39.40
2024-05-09T17:36:39.755Z,37.10
2024-05-09T17:39:41.595Z,37.40
2024-05-09T17:42:43.426Z,37.20
2024-05-09T17:45:45.395Z,37.60
2024-05-09T17:48:47.301Z,37.70
2024-05-09T17:51:53.379Z,37.80
2024-05-09T17:54:55.283Z,38.10
2024-05-09T17:57:57.267Z,38.40
2024-05-09T18:00:59.354Z,38.20
2024-05-09T18:04:01.322Z,38.70
2024-05-09T18:07:03.415Z,39.00
2024-05-09T18:10:10.217Z,39.20
2024-05-09T18:13:17.618Z,39.90
2024-05-09T18:16:20.322Z,40.80
2024-05-09T18:19:22.248Z,41.30
2024-05-09T18:22:24.191Z,42.40
2024-05-09T18:25:26.044Z,42.90
2024-05-09T18:28:28.084Z,43.60
2024-05-09T18:31:30.188Z,44.30
2024-05-09T18:34:32.129Z,43.50
2024-05-09T18:37:34.029Z,43.00
2024-05-09T18:40:38.059Z,44.30
2024-05-09T18:43:45.109Z,45.10
2024-05-09T18:46:50.231Z,45.60
2024-05-09T18:49:52.084Z,46.20
2024-05-09T18:52:53.888Z,46.10
2024-05-09T18:55:55.797Z,45.50
2024-05-09T18:58:57.743Z,45.40
2024-05-09T19:01:59.578Z,45.60
2024-05-09T19:05:01.467Z,45.70
2024-05-09T19:08:03.679Z,46.00
2024-05-09T19:11:05.567Z,46.20
2024-05-09T19:14:07.467Z,46.40
2024-05-09T19:17:09.379Z,46.60
2024-05-09T19:20:20.606Z,46.80
2024-05-09T19:23:32.529Z,47.40
2024-05-09T19:26:34.729Z,48.10
2024-05-09T19:29:36.478Z,48.00
2024-05-09T19:32:38.629Z,48.40
2024-05-09T19:35:40.806Z,48.50
2024-05-09T19:38:42.622Z,48.80
2024-05-09T19:41:44.383Z,49.10
2024-05-09T19:44:46.171Z,49.50
2024-05-09T19:47:48.146Z,50.20
2024-05-09T19:50:52.897Z,50.60
2024-05-09T19:53:54.969Z,50.80
2024-05-09T19:56:56.881Z,51.20
2024-05-09T19:59:58.914Z,51.20
2024-05-09T20:03:00.830Z,51.20
2024-05-09T20:06:03.062Z,51.40
2024-05-09T20:09:04.949Z,52.20
2024-05-09T20:12:06.813Z,52.60
2024-05-09T20:15:08.983Z,53.50
2024-05-09T20:18:11.142Z,54.40
2024-05-09T20:21:13.097Z,54.50
2024-05-09T20:24:14.919Z,55.60
2024-05-09T20:27:16.658Z,56.80
2024-05-09T20:30:25.457Z,57.20
2024-05-09T20:33:33.438Z,58.20
2024-05-09T20:36:35.325Z,58.70
2024-05-09T20:39:37.121Z,58.80
2024-05-09T20:42:38.959Z,59.10
2024-05-09T20:45:41.112Z,60.50
2024-05-09T20:48:43.200Z,61.70
2024-05-09T20:51:45.106Z,63.70
2024-05-09T20:54:46.877Z,63.90
2024-05-09T20:57:48.686Z,64.00
2024-05-09T21:00:50.568Z,64.70
2024-05-09T21:03:52.473Z,65.20
2024-05-09T21:06:54.329Z,65.80
2024-05-09T21:09:56.296Z,66.60
2024-05-09T21:12:59.087Z,67.00
2024-05-09T21:16:00.951Z,67.10
2024-05-09T21:19:02.774Z,67.60
2024-05-09T21:22:04.762Z,68.20
2024-05-09T21:25:06.738Z,68.80
2024-05-09T21:28:08.623Z,69.90
2024-05-09T21:31:10.482Z,70.00
2024-05-09T21:34:12.392Z,70.30
2024-05-09T21:37:14.368Z,70.80
2024-05-09T21:40:26.641Z,71.10
2024-05-09T21:43:34.858Z,71.50
2024-05-09T21:46:36.714Z,71.90
2024-05-09T21:49:38.582Z,72.40
2024-05-09T21:52:40.844Z,72.40
2024-05-09T21:55:43.078Z,72.60
2024-05-09T21:58:44.945Z,72.60
2024-05-09T22:01:47.028Z,72.40
2024-05-09T22:04:49.074Z,73.40
2024-05-09T22:07:50.969Z,73.40
2024-05-09T22:10:53.081Z,73.50
2024-05-09T22:13:54.941Z,73.90
2024-05-09T22:16:56.758Z,74.30
2024-05-09T22:19:58.533Z,74.60
2024-05-09T22:23:00.350Z,75.00
2024-05-09T22:26:02.142Z,75.80
2024-05-09T22:29:04.839Z,75.80
2024-05-09T22:32:06.944Z,76.10
2024-05-09T22:35:08.747Z,76.70
2024-05-09T22:38:10.523Z,77.10
2024-05-09T22:41:12.363Z,77.70
2024-05-09T22:44:14.205Z,78.50
2024-05-09T22:47:15.978Z,78.70
2024-05-09T22:50:26.296Z,78.70
2024-05-09T22:53:29.015Z,78.90
2024-05-09T22:56:30.842Z,79.10
2024-05-09T22:59:32.585Z,79.00
2024-05-09T23:02:35.278Z,79.40
2024-05-09T23:05:37.159Z,79.10
2024-05-09T23:08:39.062Z,79.70
2024-05-09T23:11:41.555Z,80.00
2024-05-09T23:14:46.983Z,80.70
2024-05-09T23:17:48.910Z,81.00
2024-05-09T23:20:50.805Z,81.20
2024-05-09T23:23:52.592Z,81.20
2024-05-09T23:26:54.343Z,81.50
2024-05-09T23:29:56.121Z,81.90
2024-05-09T23:32:57.956Z,82.30
2024-05-09T23:35:59.716Z,82.80
2024-05-09T23:39:01.490Z,83.00
2024-05-09T23:42:04.139Z,83.20
2024-05-09T23:45:06.582Z,83.50
2024-05-09T23:48:09.046Z,83.70
2024-05-09T23:51:11.052Z,83.90
2024-05-09T23:54:12.830Z,84.10
2024-05-09T23:57:14.584Z,84.40
